sensor_id;sensor_type;location;lat;lon;timestamp;P1;durP1;ratioP1;P2;durP2;ratioP2
74528;SDS011;63009;52.584;5.932;2022-12-20T00:01:57;8.27;;;2.78;;
74528;SDS011;63009;52.584;5.932;2022-12-20T00:04:22;8.33;;;3.07;;
74528;SDS011;63009;52.584;5.932;2022-12-20T00:06:47;10.27;;;3.15;;
74528;SDS011;63009;52.584;5.932;2022-12-20T00:09:13;8.63;;;3.00;;
74528;SDS011;63009;52.584;5.932;2022-12-20T00:11:39;7.43;;;3.07;;
74528;SDS011;63009;52.584;5.932;2022-12-20T00:14:05;8.25;;;2.85;;
74528;SDS011;63009;52.584;5.932;2022-12-20T00:16:31;7.88;;;2.78;;
74528;SDS011;63009;52.584;5.932;2022-12-20T00:18:58;7.65;;;2.72;;
74528;SDS011;63009;52.584;5.932;2022-12-20T00:21:26;10.38;;;3.28;;
74528;SDS011;63009;52.584;5.932;2022-12-20T00:23:52;7.55;;;3.08;;
74528;SDS011;63009;52.584;5.932;2022-12-20T00:26:19;9.40;;;2.80;;
74528;SDS011;63009;52.584;5.932;2022-12-20T00:28:46;8.35;;;3.08;;
74528;SDS011;63009;52.584;5.932;2022-12-20T00:31:12;9.68;;;3.25;;
74528;SDS011;63009;52.584;5.932;2022-12-20T00:33:39;9.45;;;3.22;;
74528;SDS011;63009;52.584;5.932;2022-12-20T00:36:05;6.38;;;2.42;;
74528;SDS011;63009;52.584;5.932;2022-12-20T00:38:32;7.97;;;2.55;;
74528;SDS011;63009;52.584;5.932;2022-12-20T00:41:05;8.68;;;3.15;;
74528;SDS011;63009;52.584;5.932;2022-12-20T00:43:32;7.03;;;2.60;;
74528;SDS011;63009;52.584;5.932;2022-12-20T00:45:59;7.45;;;2.83;;
74528;SDS011;63009;52.584;5.932;2022-12-20T00:48:24;7.65;;;3.40;;
74528;SDS011;63009;52.584;5.932;2022-12-20T00:50:50;7.97;;;2.83;;
74528;SDS011;63009;52.584;5.932;2022-12-20T00:53:16;6.78;;;2.42;;
74528;SDS011;63009;52.584;5.932;2022-12-20T00:55:42;7.95;;;3.08;;
74528;SDS011;63009;52.584;5.932;2022-12-20T00:58:08;7.35;;;2.40;;
74528;SDS011;63009;52.584;5.932;2022-12-20T01:00:33;7.13;;;2.70;;
74528;SDS011;63009;52.584;5.932;2022-12-20T01:02:59;7.63;;;2.72;;
74528;SDS011;63009;52.584;5.932;2022-12-20T01:05:24;9.13;;;3.15;;
74528;SDS011;63009;52.584;5.932;2022-12-20T01:07:49;7.60;;;2.63;;
74528;SDS011;63009;52.584;5.932;2022-12-20T01:10:15;9.90;;;2.97;;
74528;SDS011;63009;52.584;5.932;2022-12-20T01:12:40;8.40;;;2.87;;
74528;SDS011;63009;52.584;5.932;2022-12-20T01:15:05;7.13;;;2.73;;
74528;SDS011;63009;52.584;5.932;2022-12-20T01:17:31;8.55;;;2.50;;
74528;SDS011;63009;52.584;5.932;2022-12-20T01:19:57;7.30;;;2.60;;
74528;SDS011;63009;52.584;5.932;2022-12-20T01:22:22;8.57;;;2.77;;
74528;SDS011;63009;52.584;5.932;2022-12-20T01:24:47;8.57;;;2.80;;
74528;SDS011;63009;52.584;5.932;2022-12-20T01:27:13;7.25;;;2.50;;
74528;SDS011;63009;52.584;5.932;2022-12-20T01:29:38;7.97;;;2.43;;
74528;SDS011;63009;52.584;5.932;2022-12-20T01:32:03;7.50;;;2.50;;
74528;SDS011;63009;52.584;5.932;2022-12-20T01:34:28;8.15;;;2.80;;
74528;SDS011;63009;52.584;5.932;2022-12-20T01:36:54;7.03;;;3.00;;
74528;SDS011;63009;52.584;5.932;2022-12-20T01:39:19;10.85;;;2.97;;
74528;SDS011;63009;52.584;5.932;2022-12-20T01:41:45;7.60;;;2.80;;
74528;SDS011;63009;52.584;5.932;2022-12-20T01:46:42;8.27;;;3.00;;
74528;SDS011;63009;52.584;5.932;2022-12-20T01:49:10;7.88;;;2.55;;
74528;SDS011;63009;52.584;5.932;2022-12-20T01:51:46;9.23;;;2.95;;
74528;SDS011;63009;52.584;5.932;2022-12-20T01:57:05;8.85;;;2.65;;
74528;SDS011;63009;52.584;5.932;2022-12-20T01:59:41;7.75;;;3.20;;
74528;SDS011;63009;52.584;5.932;2022-12-20T02:02:10;7.70;;;3.00;;
74528;SDS011;63009;52.584;5.932;2022-12-20T02:04:37;7.93;;;3.20;;
74528;SDS011;63009;52.584;5.932;2022-12-20T02:07:03;7.25;;;3.45;;
74528;SDS011;63009;52.584;5.932;2022-12-20T02:09:30;8.63;;;2.85;;
74528;SDS011;63009;52.584;5.932;2022-12-20T02:17:41;7.68;;;3.45;;
74528;SDS011;63009;52.584;5.932;2022-12-20T02:20:32;10.40;;;3.65;;
74528;SDS011;63009;52.584;5.932;2022-12-20T02:31:12;8.40;;;3.17;;
74528;SDS011;63009;52.584;5.932;2022-12-20T02:33:43;7.95;;;3.20;;
74528;SDS011;63009;52.584;5.932;2022-12-20T02:36:13;8.48;;;3.22;;
74528;SDS011;63009;52.584;5.932;2022-12-20T02:38:40;9.98;;;3.28;;
74528;SDS011;63009;52.584;5.932;2022-12-20T02:46:20;8.93;;;2.97;;
74528;SDS011;63009;52.584;5.932;2022-12-20T02:48:47;8.35;;;3.25;;
74528;SDS011;63009;52.584;5.932;2022-12-20T02:51:15;10.00;;;3.45;;
74528;SDS011;63009;52.584;5.932;2022-12-20T02:53:43;8.02;;;2.75;;
74528;SDS011;63009;52.584;5.932;2022-12-20T02:58:42;10.20;;;3.17;;
74528;SDS011;63009;52.584;5.932;2022-12-20T03:01:16;8.27;;;3.42;;
74528;SDS011;63009;52.584;5.932;2022-12-20T03:04:05;9.63;;;3.70;;
74528;SDS011;63009;52.584;5.932;2022-12-20T03:06:32;7.32;;;2.95;;
74528;SDS011;63009;52.584;5.932;2022-12-20T03:08:58;9.77;;;3.45;;
74528;SDS011;63009;52.584;5.932;2022-12-20T03:11:23;9.23;;;3.10;;
74528;SDS011;63009;52.584;5.932;2022-12-20T03:13:48;10.67;;;3.83;;
74528;SDS011;63009;52.584;5.932;2022-12-20T03:16:13;8.90;;;3.40;;
74528;SDS011;63009;52.584;5.932;2022-12-20T03:18:39;9.60;;;3.58;;
74528;SDS011;63009;52.584;5.932;2022-12-20T03:21:04;8.35;;;3.60;;
74528;SDS011;63009;52.584;5.932;2022-12-20T03:23:30;8.55;;;3.20;;
74528;SDS011;63009;52.584;5.932;2022-12-20T03:25:56;9.57;;;3.25;;
74528;SDS011;63009;52.584;5.932;2022-12-20T03:28:21;9.93;;;3.60;;
74528;SDS011;63009;52.584;5.932;2022-12-20T03:30:46;9.43;;;3.30;;
74528;SDS011;63009;52.584;5.932;2022-12-20T03:33:11;8.37;;;3.47;;
74528;SDS011;63009;52.584;5.932;2022-12-20T03:35:37;10.57;;;3.88;;
74528;SDS011;63009;52.584;5.932;2022-12-20T03:38:02;10.07;;;3.53;;
74528;SDS011;63009;52.584;5.932;2022-12-20T03:40:27;10.57;;;3.40;;
74528;SDS011;63009;52.584;5.932;2022-12-20T03:42:53;9.30;;;3.60;;
74528;SDS011;63009;52.584;5.932;2022-12-20T03:45:18;9.10;;;3.63;;
74528;SDS011;63009;52.584;5.932;2022-12-20T03:47:43;11.65;;;3.80;;
74528;SDS011;63009;52.584;5.932;2022-12-20T03:50:09;8.20;;;3.37;;
74528;SDS011;63009;52.584;5.932;2022-12-20T03:52:34;9.98;;;3.72;;
74528;SDS011;63009;52.584;5.932;2022-12-20T03:55:00;9.80;;;3.55;;
74528;SDS011;63009;52.584;5.932;2022-12-20T03:57:25;8.63;;;3.40;;
74528;SDS011;63009;52.584;5.932;2022-12-20T03:59:51;11.85;;;3.80;;
74528;SDS011;63009;52.584;5.932;2022-12-20T04:02:18;9.80;;;3.83;;
74528;SDS011;63009;52.584;5.932;2022-12-20T04:04:43;9.90;;;3.60;;
74528;SDS011;63009;52.584;5.932;2022-12-20T04:07:08;10.30;;;3.57;;
74528;SDS011;63009;52.584;5.932;2022-12-20T04:09:34;9.63;;;3.47;;
74528;SDS011;63009;52.584;5.932;2022-12-20T04:11:59;9.70;;;3.30;;
74528;SDS011;63009;52.584;5.932;2022-12-20T04:14:25;8.82;;;3.20;;
74528;SDS011;63009;52.584;5.932;2022-12-20T04:16:50;8.80;;;3.17;;
74528;SDS011;63009;52.584;5.932;2022-12-20T04:19:16;7.67;;;2.83;;
74528;SDS011;63009;52.584;5.932;2022-12-20T04:21:41;10.30;;;3.33;;
74528;SDS011;63009;52.584;5.932;2022-12-20T04:24:06;7.95;;;2.72;;
74528;SDS011;63009;52.584;5.932;2022-12-20T04:26:32;10.52;;;3.20;;
74528;SDS011;63009;52.584;5.932;2022-12-20T04:28:57;8.43;;;3.25;;
74528;SDS011;63009;52.584;5.932;2022-12-20T04:31:23;8.00;;;2.77;;
74528;SDS011;63009;52.584;5.932;2022-12-20T04:33:49;9.07;;;3.17;;
74528;SDS011;63009;52.584;5.932;2022-12-20T04:36:14;9.83;;;2.93;;
74528;SDS011;63009;52.584;5.932;2022-12-20T04:38:40;12.57;;;3.25;;
74528;SDS011;63009;52.584;5.932;2022-12-20T04:41:05;7.43;;;2.70;;
74528;SDS011;63009;52.584;5.932;2022-12-20T04:43:30;8.65;;;3.10;;
74528;SDS011;63009;52.584;5.932;2022-12-20T04:45:56;9.57;;;3.15;;
74528;SDS011;63009;52.584;5.932;2022-12-20T04:48:22;10.02;;;2.80;;
74528;SDS011;63009;52.584;5.932;2022-12-20T04:50:51;8.57;;;2.78;;
74528;SDS011;63009;52.584;5.932;2022-12-20T04:53:17;8.10;;;2.63;;
74528;SDS011;63009;52.584;5.932;2022-12-20T04:56:02;9.35;;;3.08;;
74528;SDS011;63009;52.584;5.932;2022-12-20T04:58:28;8.68;;;2.60;;
74528;SDS011;63009;52.584;5.932;2022-12-20T05:00:53;7.80;;;2.95;;
74528;SDS011;63009;52.584;5.932;2022-12-20T05:03:19;8.40;;;3.40;;
74528;SDS011;63009;52.584;5.932;2022-12-20T05:05:46;9.80;;;2.60;;
74528;SDS011;63009;52.584;5.932;2022-12-20T05:08:11;7.35;;;2.40;;
74528;SDS011;63009;52.584;5.932;2022-12-20T05:10:37;8.13;;;2.53;;
74528;SDS011;63009;52.584;5.932;2022-12-20T05:13:02;9.43;;;3.07;;
74528;SDS011;63009;52.584;5.932;2022-12-20T05:15:28;8.98;;;2.50;;
74528;SDS011;63009;52.584;5.932;2022-12-20T05:17:53;7.25;;;2.70;;
74528;SDS011;63009;52.584;5.932;2022-12-20T05:20:24;7.55;;;2.60;;
74528;SDS011;63009;52.584;5.932;2022-12-20T05:22:50;7.40;;;2.65;;
74528;SDS011;63009;52.584;5.932;2022-12-20T05:25:35;8.30;;;2.90;;
74528;SDS011;63009;52.584;5.932;2022-12-20T05:28:20;7.45;;;2.40;;
74528;SDS011;63009;52.584;5.932;2022-12-20T05:30:45;8.53;;;2.70;;
74528;SDS011;63009;52.584;5.932;2022-12-20T05:33:11;8.07;;;2.67;;
74528;SDS011;63009;52.584;5.932;2022-12-20T05:35:36;8.70;;;2.90;;
74528;SDS011;63009;52.584;5.932;2022-12-20T05:38:01;7.57;;;2.57;;
74528;SDS011;63009;52.584;5.932;2022-12-20T05:40:27;8.15;;;2.58;;
74528;SDS011;63009;52.584;5.932;2022-12-20T05:42:53;8.17;;;2.50;;
74528;SDS011;63009;52.584;5.932;2022-12-20T05:45:19;8.25;;;2.63;;
74528;SDS011;63009;52.584;5.932;2022-12-20T05:47:44;7.60;;;2.73;;
74528;SDS011;63009;52.584;5.932;2022-12-20T05:50:09;8.50;;;2.80;;
74528;SDS011;63009;52.584;5.932;2022-12-20T05:52:35;8.57;;;3.28;;
74528;SDS011;63009;52.584;5.932;2022-12-20T05:55:00;9.40;;;3.57;;
74528;SDS011;63009;52.584;5.932;2022-12-20T05:57:25;6.90;;;2.57;;
74528;SDS011;63009;52.584;5.932;2022-12-20T05:59:50;8.50;;;3.00;;
74528;SDS011;63009;52.584;5.932;2022-12-20T06:02:16;10.47;;;3.50;;
74528;SDS011;63009;52.584;5.932;2022-12-20T06:04:41;10.87;;;3.83;;
74528;SDS011;63009;52.584;5.932;2022-12-20T06:07:06;9.33;;;3.57;;
74528;SDS011;63009;52.584;5.932;2022-12-20T06:09:32;10.63;;;3.30;;
74528;SDS011;63009;52.584;5.932;2022-12-20T06:11:57;7.72;;;3.45;;
74528;SDS011;63009;52.584;5.932;2022-12-20T06:14:23;7.65;;;3.10;;
74528;SDS011;63009;52.584;5.932;2022-12-20T06:16:48;8.52;;;3.65;;
74528;SDS011;63009;52.584;5.932;2022-12-20T06:19:14;11.50;;;3.65;;
74528;SDS011;63009;52.584;5.932;2022-12-20T06:21:39;12.18;;;4.25;;
74528;SDS011;63009;52.584;5.932;2022-12-20T06:24:05;8.50;;;3.33;;
74528;SDS011;63009;52.584;5.932;2022-12-20T06:26:30;8.25;;;3.03;;
74528;SDS011;63009;52.584;5.932;2022-12-20T06:29:00;9.75;;;3.83;;
74528;SDS011;63009;52.584;5.932;2022-12-20T06:31:26;10.07;;;3.65;;
74528;SDS011;63009;52.584;5.932;2022-12-20T06:33:51;9.77;;;3.77;;
74528;SDS011;63009;52.584;5.932;2022-12-20T06:36:17;8.77;;;3.60;;
74528;SDS011;63009;52.584;5.932;2022-12-20T06:38:42;8.33;;;3.33;;
74528;SDS011;63009;52.584;5.932;2022-12-20T06:41:07;8.50;;;3.60;;
74528;SDS011;63009;52.584;5.932;2022-12-20T06:43:33;10.70;;;3.60;;
74528;SDS011;63009;52.584;5.932;2022-12-20T06:45:58;12.30;;;3.93;;
74528;SDS011;63009;52.584;5.932;2022-12-20T06:48:23;9.03;;;3.57;;
74528;SDS011;63009;52.584;5.932;2022-12-20T06:50:49;9.23;;;3.50;;
74528;SDS011;63009;52.584;5.932;2022-12-20T06:53:14;11.47;;;3.63;;
74528;SDS011;63009;52.584;5.932;2022-12-20T06:55:39;11.55;;;3.72;;
74528;SDS011;63009;52.584;5.932;2022-12-20T06:58:04;10.23;;;3.37;;
74528;SDS011;63009;52.584;5.932;2022-12-20T07:00:30;9.23;;;3.53;;
74528;SDS011;63009;52.584;5.932;2022-12-20T07:02:55;9.57;;;3.67;;
74528;SDS011;63009;52.584;5.932;2022-12-20T07:05:21;9.95;;;3.33;;
74528;SDS011;63009;52.584;5.932;2022-12-20T07:07:46;8.37;;;3.33;;
74528;SDS011;63009;52.584;5.932;2022-12-20T07:10:11;8.30;;;3.30;;
74528;SDS011;63009;52.584;5.932;2022-12-20T07:12:37;10.02;;;3.83;;
74528;SDS011;63009;52.584;5.932;2022-12-20T07:15:02;9.27;;;3.90;;
74528;SDS011;63009;52.584;5.932;2022-12-20T07:17:27;9.27;;;3.58;;
74528;SDS011;63009;52.584;5.932;2022-12-20T07:19:53;9.57;;;3.57;;
74528;SDS011;63009;52.584;5.932;2022-12-20T07:22:18;9.50;;;3.50;;
74528;SDS011;63009;52.584;5.932;2022-12-20T07:24:44;9.30;;;3.63;;
74528;SDS011;63009;52.584;5.932;2022-12-20T07:27:09;9.85;;;3.25;;
74528;SDS011;63009;52.584;5.932;2022-12-20T07:29:35;9.45;;;3.20;;
74528;SDS011;63009;52.584;5.932;2022-12-20T07:32:01;10.67;;;3.30;;
74528;SDS011;63009;52.584;5.932;2022-12-20T07:34:26;7.60;;;3.08;;
74528;SDS011;63009;52.584;5.932;2022-12-20T07:36:52;10.40;;;2.80;;
74528;SDS011;63009;52.584;5.932;2022-12-20T07:39:17;8.13;;;2.90;;
74528;SDS011;63009;52.584;5.932;2022-12-20T07:41:43;8.63;;;2.58;;
74528;SDS011;63009;52.584;5.932;2022-12-20T07:44:08;6.80;;;2.40;;
74528;SDS011;63009;52.584;5.932;2022-12-20T07:46:34;7.53;;;3.03;;
74528;SDS011;63009;52.584;5.932;2022-12-20T07:48:59;6.87;;;2.43;;
74528;SDS011;63009;52.584;5.932;2022-12-20T07:51:25;8.53;;;2.60;;
74528;SDS011;63009;52.584;5.932;2022-12-20T07:53:56;9.23;;;2.65;;
74528;SDS011;63009;52.584;5.932;2022-12-20T07:56:27;6.63;;;2.47;;
74528;SDS011;63009;52.584;5.932;2022-12-20T07:58:55;7.15;;;2.22;;
74528;SDS011;63009;52.584;5.932;2022-12-20T08:01:23;7.25;;;2.65;;
74528;SDS011;63009;52.584;5.932;2022-12-20T08:03:51;7.78;;;2.78;;
74528;SDS011;63009;52.584;5.932;2022-12-20T08:06:19;8.05;;;2.15;;
74528;SDS011;63009;52.584;5.932;2022-12-20T08:08:46;9.20;;;2.83;;
74528;SDS011;63009;52.584;5.932;2022-12-20T08:11:15;9.90;;;2.60;;
74528;SDS011;63009;52.584;5.932;2022-12-20T08:13:41;7.63;;;2.55;;
74528;SDS011;63009;52.584;5.932;2022-12-20T08:16:06;6.70;;;2.40;;
74528;SDS011;63009;52.584;5.932;2022-12-20T08:18:32;6.95;;;2.83;;
74528;SDS011;63009;52.584;5.932;2022-12-20T08:20:57;8.33;;;2.87;;
74528;SDS011;63009;52.584;5.932;2022-12-20T08:23:22;6.88;;;2.55;;
74528;SDS011;63009;52.584;5.932;2022-12-20T08:25:48;6.57;;;2.45;;
74528;SDS011;63009;52.584;5.932;2022-12-20T08:28:14;7.63;;;2.80;;
74528;SDS011;63009;52.584;5.932;2022-12-20T08:30:39;8.18;;;2.13;;
74528;SDS011;63009;52.584;5.932;2022-12-20T08:33:05;7.47;;;2.50;;
74528;SDS011;63009;52.584;5.932;2022-12-20T08:35:30;8.20;;;2.42;;
74528;SDS011;63009;52.584;5.932;2022-12-20T08:37:55;8.05;;;2.22;;
74528;SDS011;63009;52.584;5.932;2022-12-20T08:40:21;9.13;;;2.43;;
74528;SDS011;63009;52.584;5.932;2022-12-20T08:42:46;8.43;;;2.55;;
74528;SDS011;63009;52.584;5.932;2022-12-20T08:45:11;8.13;;;2.37;;
74528;SDS011;63009;52.584;5.932;2022-12-20T08:47:37;7.18;;;2.53;;
74528;SDS011;63009;52.584;5.932;2022-12-20T08:50:03;7.75;;;2.40;;
74528;SDS011;63009;52.584;5.932;2022-12-20T08:52:28;7.32;;;2.33;;
74528;SDS011;63009;52.584;5.932;2022-12-20T08:54:54;9.02;;;2.78;;
74528;SDS011;63009;52.584;5.932;2022-12-20T08:57:19;7.03;;;2.50;;
74528;SDS011;63009;52.584;5.932;2022-12-20T08:59:45;7.07;;;2.30;;
74528;SDS011;63009;52.584;5.932;2022-12-20T09:02:10;9.02;;;2.45;;
74528;SDS011;63009;52.584;5.932;2022-12-20T09:04:35;6.87;;;2.53;;
74528;SDS011;63009;52.584;5.932;2022-12-20T09:07:01;6.87;;;2.63;;
74528;SDS011;63009;52.584;5.932;2022-12-20T09:09:26;9.50;;;2.78;;
74528;SDS011;63009;52.584;5.932;2022-12-20T09:11:51;9.55;;;2.42;;
74528;SDS011;63009;52.584;5.932;2022-12-20T09:14:17;8.07;;;2.43;;
74528;SDS011;63009;52.584;5.932;2022-12-20T09:16:43;8.48;;;2.85;;
74528;SDS011;63009;52.584;5.932;2022-12-20T09:19:09;9.07;;;3.23;;
74528;SDS011;63009;52.584;5.932;2022-12-20T09:21:36;7.10;;;3.00;;
74528;SDS011;63009;52.584;5.932;2022-12-20T09:24:02;9.98;;;2.85;;
74528;SDS011;63009;52.584;5.932;2022-12-20T09:26:27;7.18;;;2.60;;
74528;SDS011;63009;52.584;5.932;2022-12-20T09:28:53;9.15;;;2.92;;
74528;SDS011;63009;52.584;5.932;2022-12-20T09:31:19;13.27;;;3.20;;
74528;SDS011;63009;52.584;5.932;2022-12-20T09:33:47;9.73;;;3.40;;
74528;SDS011;63009;52.584;5.932;2022-12-20T09:36:12;7.83;;;2.73;;
74528;SDS011;63009;52.584;5.932;2022-12-20T09:38:39;8.18;;;4.18;;
74528;SDS011;63009;52.584;5.932;2022-12-20T09:41:05;8.18;;;2.67;;
74528;SDS011;63009;52.584;5.932;2022-12-20T09:43:39;8.13;;;2.72;;
74528;SDS011;63009;52.584;5.932;2022-12-20T09:46:05;8.43;;;2.58;;
74528;SDS011;63009;52.584;5.932;2022-12-20T09:48:32;7.82;;;2.67;;
74528;SDS011;63009;52.584;5.932;2022-12-20T09:54:21;6.75;;;2.67;;
74528;SDS011;63009;52.584;5.932;2022-12-20T09:56:30;7.75;;;2.72;;
74528;SDS011;63009;52.584;5.932;2022-12-20T09:59:01;7.97;;;2.92;;
74528;SDS011;63009;52.584;5.932;2022-12-20T10:01:29;7.43;;;2.97;;
74528;SDS011;63009;52.584;5.932;2022-12-20T10:03:57;8.23;;;3.15;;
74528;SDS011;63009;52.584;5.932;2022-12-20T10:08:56;6.90;;;2.42;;
74528;SDS011;63009;52.584;5.932;2022-12-20T10:17:03;9.95;;;2.88;;
74528;SDS011;63009;52.584;5.932;2022-12-20T10:19:52;11.80;;;3.28;;
74528;SDS011;63009;52.584;5.932;2022-12-20T10:25:19;7.63;;;3.05;;
74528;SDS011;63009;52.584;5.932;2022-12-20T10:27:50;9.43;;;4.18;;
74528;SDS011;63009;52.584;5.932;2022-12-20T10:30:20;9.90;;;3.33;;
74528;SDS011;63009;52.584;5.932;2022-12-20T10:32:48;7.22;;;2.80;;
74528;SDS011;63009;52.584;5.932;2022-12-20T10:35:23;8.55;;;2.65;;
74528;SDS011;63009;52.584;5.932;2022-12-20T10:40:31;8.05;;;2.97;;
74528;SDS011;63009;52.584;5.932;2022-12-20T10:42:59;8.70;;;2.70;;
74528;SDS011;63009;52.584;5.932;2022-12-20T10:45:32;9.32;;;3.67;;
74528;SDS011;63009;52.584;5.932;2022-12-20T10:50:27;8.95;;;3.67;;
74528;SDS011;63009;52.584;5.932;2022-12-20T10:55:48;8.05;;;3.05;;
74528;SDS011;63009;52.584;5.932;2022-12-20T10:58:21;8.00;;;2.90;;
74528;SDS011;63009;52.584;5.932;2022-12-20T11:04:00;8.98;;;3.65;;
74528;SDS011;63009;52.584;5.932;2022-12-20T11:06:49;9.60;;;3.08;;
74528;SDS011;63009;52.584;5.932;2022-12-20T11:09:22;12.18;;;3.45;;
74528;SDS011;63009;52.584;5.932;2022-12-20T11:11:57;8.50;;;3.10;;
74528;SDS011;63009;52.584;5.932;2022-12-20T11:14:36;8.55;;;3.13;;
74528;SDS011;63009;52.584;5.932;2022-12-20T11:19:49;8.13;;;3.08;;
74528;SDS011;63009;52.584;5.932;2022-12-20T11:25:00;8.65;;;2.95;;
74528;SDS011;63009;52.584;5.932;2022-12-20T11:27:53;7.03;;;3.30;;
74528;SDS011;63009;52.584;5.932;2022-12-20T11:38:42;7.55;;;3.13;;
74528;SDS011;63009;52.584;5.932;2022-12-20T11:49:34;8.77;;;3.22;;
74528;SDS011;63009;52.584;5.932;2022-12-20T11:54:52;7.80;;;3.53;;
74528;SDS011;63009;52.584;5.932;2022-12-20T11:57:29;7.65;;;3.38;;
74528;SDS011;63009;52.584;5.932;2022-12-20T12:00:00;11.10;;;3.40;;
74528;SDS011;63009;52.584;5.932;2022-12-20T12:02:27;7.43;;;3.42;;
74528;SDS011;63009;52.584;5.932;2022-12-20T12:05:02;7.22;;;3.20;;
74528;SDS011;63009;52.584;5.932;2022-12-20T12:07:39;7.85;;;3.47;;
74528;SDS011;63009;52.584;5.932;2022-12-20T12:10:13;8.23;;;3.47;;
74528;SDS011;63009;52.584;5.932;2022-12-20T12:12:43;11.23;;;4.43;;
74528;SDS011;63009;52.584;5.932;2022-12-20T12:15:33;10.20;;;3.97;;
74528;SDS011;63009;52.584;5.932;2022-12-20T12:26:01;10.27;;;3.83;;
74528;SDS011;63009;52.584;5.932;2022-12-20T12:28:52;9.63;;;3.90;;
74528;SDS011;63009;52.584;5.932;2022-12-20T12:31:20;10.30;;;4.47;;
74528;SDS011;63009;52.584;5.932;2022-12-20T12:34:00;9.13;;;3.80;;
74528;SDS011;63009;52.584;5.932;2022-12-20T12:44:55;8.77;;;3.95;;
74528;SDS011;63009;52.584;5.932;2022-12-20T12:47:32;9.32;;;4.63;;
74528;SDS011;63009;52.584;5.932;2022-12-20T12:50:02;8.20;;;3.95;;
74528;SDS011;63009;52.584;5.932;2022-12-20T12:52:47;8.80;;;3.88;;
74528;SDS011;63009;52.584;5.932;2022-12-20T12:58:28;9.38;;;4.07;;
74528;SDS011;63009;52.584;5.932;2022-12-20T13:00:56;10.52;;;4.13;;
74528;SDS011;63009;52.584;5.932;2022-12-20T13:11:31;9.10;;;4.47;;
74528;SDS011;63009;52.584;5.932;2022-12-20T13:14:10;10.93;;;5.07;;
74528;SDS011;63009;52.584;5.932;2022-12-20T13:16:38;8.95;;;4.18;;
74528;SDS011;63009;52.584;5.932;2022-12-20T13:21:38;11.82;;;4.88;;
74528;SDS011;63009;52.584;5.932;2022-12-20T13:26:58;10.32;;;4.80;;
74528;SDS011;63009;52.584;5.932;2022-12-20T13:29:26;11.55;;;5.60;;
74528;SDS011;63009;52.584;5.932;2022-12-20T13:31:56;10.63;;;5.07;;
74528;SDS011;63009;52.584;5.932;2022-12-20T13:34:34;11.75;;;5.65;;
74528;SDS011;63009;52.584;5.932;2022-12-20T13:37:23;10.75;;;5.05;;
74528;SDS011;63009;52.584;5.932;2022-12-20T13:39:50;10.18;;;5.45;;
74528;SDS011;63009;52.584;5.932;2022-12-20T13:42:26;10.60;;;5.43;;
74528;SDS011;63009;52.584;5.932;2022-12-20T13:45:00;9.65;;;5.20;;
74528;SDS011;63009;52.584;5.932;2022-12-20T13:47:28;11.60;;;5.40;;
74528;SDS011;63009;52.584;5.932;2022-12-20T13:49:59;12.18;;;5.97;;
74528;SDS011;63009;52.584;5.932;2022-12-20T13:52:26;11.35;;;6.32;;
74528;SDS011;63009;52.584;5.932;2022-12-20T13:54:58;12.52;;;5.88;;
74528;SDS011;63009;52.584;5.932;2022-12-20T13:57:26;11.48;;;5.88;;
74528;SDS011;63009;52.584;5.932;2022-12-20T13:59:55;11.48;;;6.20;;
74528;SDS011;63009;52.584;5.932;2022-12-20T14:02:26;10.88;;;5.72;;
74528;SDS011;63009;52.584;5.932;2022-12-20T14:05:00;12.23;;;6.32;;
74528;SDS011;63009;52.584;5.932;2022-12-20T14:07:32;11.48;;;6.57;;
74528;SDS011;63009;52.584;5.932;2022-12-20T14:09:59;9.95;;;5.35;;
74528;SDS011;63009;52.584;5.932;2022-12-20T14:12:27;11.52;;;6.13;;
74528;SDS011;63009;52.584;5.932;2022-12-20T14:14:54;12.35;;;6.03;;
74528;SDS011;63009;52.584;5.932;2022-12-20T14:23:04;11.75;;;6.00;;
74528;SDS011;63009;52.584;5.932;2022-12-20T14:30:40;12.00;;;6.15;;
74528;SDS011;63009;52.584;5.932;2022-12-20T14:33:21;11.80;;;6.72;;
74528;SDS011;63009;52.584;5.932;2022-12-20T14:35:52;14.18;;;6.57;;
74528;SDS011;63009;52.584;5.932;2022-12-20T14:38:36;12.00;;;6.90;;
74528;SDS011;63009;52.584;5.932;2022-12-20T14:41:04;14.50;;;7.05;;
74528;SDS011;63009;52.584;5.932;2022-12-20T14:43:33;11.20;;;6.88;;
74528;SDS011;63009;52.584;5.932;2022-12-20T14:46:18;12.48;;;6.53;;
74528;SDS011;63009;52.584;5.932;2022-12-20T14:48:46;11.40;;;6.90;;
74528;SDS011;63009;52.584;5.932;2022-12-20T14:51:12;14.23;;;6.70;;
74528;SDS011;63009;52.584;5.932;2022-12-20T14:53:44;14.02;;;6.50;;
74528;SDS011;63009;52.584;5.932;2022-12-20T14:56:16;10.45;;;5.50;;
74528;SDS011;63009;52.584;5.932;2022-12-20T14:58:44;10.48;;;5.53;;
74528;SDS011;63009;52.584;5.932;2022-12-20T15:01:19;11.50;;;6.38;;
74528;SDS011;63009;52.584;5.932;2022-12-20T15:03:52;11.60;;;6.25;;
74528;SDS011;63009;52.584;5.932;2022-12-20T15:09:17;10.27;;;5.65;;
74528;SDS011;63009;52.584;5.932;2022-12-20T15:11:43;9.85;;;5.38;;
74528;SDS011;63009;52.584;5.932;2022-12-20T15:14:32;11.80;;;5.97;;
74528;SDS011;63009;52.584;5.932;2022-12-20T15:16:55;10.73;;;6.07;;
74528;SDS011;63009;52.584;5.932;2022-12-20T15:19:20;11.32;;;5.55;;
74528;SDS011;63009;52.584;5.932;2022-12-20T15:21:46;11.03;;;5.97;;
74528;SDS011;63009;52.584;5.932;2022-12-20T15:24:12;10.82;;;5.50;;
74528;SDS011;63009;52.584;5.932;2022-12-20T15:26:47;10.82;;;5.85;;
74528;SDS011;63009;52.584;5.932;2022-12-20T15:29:17;12.40;;;5.93;;
74528;SDS011;63009;52.584;5.932;2022-12-20T15:31:44;11.60;;;5.90;;
74528;SDS011;63009;52.584;5.932;2022-12-20T15:34:17;11.00;;;5.80;;
74528;SDS011;63009;52.584;5.932;2022-12-20T15:36:49;11.10;;;6.47;;
74528;SDS011;63009;52.584;5.932;2022-12-20T15:39:14;11.60;;;6.10;;
74528;SDS011;63009;52.584;5.932;2022-12-20T15:41:40;11.65;;;6.60;;
74528;SDS011;63009;52.584;5.932;2022-12-20T15:44:25;12.23;;;7.10;;
74528;SDS011;63009;52.584;5.932;2022-12-20T15:46:51;14.25;;;8.60;;
74528;SDS011;63009;52.584;5.932;2022-12-20T15:49:18;14.65;;;10.10;;
74528;SDS011;63009;52.584;5.932;2022-12-20T15:51:45;13.13;;;7.47;;
74528;SDS011;63009;52.584;5.932;2022-12-20T15:54:25;14.50;;;7.05;;
74528;SDS011;63009;52.584;5.932;2022-12-20T15:56:51;13.02;;;8.88;;
74528;SDS011;63009;52.584;5.932;2022-12-20T15:59:17;16.00;;;9.07;;
74528;SDS011;63009;52.584;5.932;2022-12-20T16:01:42;14.82;;;9.07;;
74528;SDS011;63009;52.584;5.932;2022-12-20T16:04:11;14.20;;;7.80;;
74528;SDS011;63009;52.584;5.932;2022-12-20T16:06:40;17.13;;;8.85;;
74528;SDS011;63009;52.584;5.932;2022-12-20T16:09:05;13.00;;;8.25;;
74528;SDS011;63009;52.584;5.932;2022-12-20T16:11:30;13.87;;;8.30;;
74528;SDS011;63009;52.584;5.932;2022-12-20T16:13:56;15.63;;;8.75;;
74528;SDS011;63009;52.584;5.932;2022-12-20T16:16:27;16.40;;;8.73;;
74528;SDS011;63009;52.584;5.932;2022-12-20T16:18:54;17.02;;;9.05;;
74528;SDS011;63009;52.584;5.932;2022-12-20T16:21:20;14.40;;;9.40;;
74528;SDS011;63009;52.584;5.932;2022-12-20T16:23:51;17.45;;;9.80;;
74528;SDS011;63009;52.584;5.932;2022-12-20T16:26:18;19.90;;;12.55;;
74528;SDS011;63009;52.584;5.932;2022-12-20T16:28:45;19.33;;;12.50;;
74528;SDS011;63009;52.584;5.932;2022-12-20T16:31:19;17.85;;;11.90;;
74528;SDS011;63009;52.584;5.932;2022-12-20T16:33:47;18.98;;;12.07;;
74528;SDS011;63009;52.584;5.932;2022-12-20T16:36:13;18.73;;;11.00;;
74528;SDS011;63009;52.584;5.932;2022-12-20T16:38:38;18.92;;;10.52;;
74528;SDS011;63009;52.584;5.932;2022-12-20T16:41:11;17.95;;;11.00;;
74528;SDS011;63009;52.584;5.932;2022-12-20T16:43:51;18.98;;;11.07;;
74528;SDS011;63009;52.584;5.932;2022-12-20T16:46:19;22.08;;;13.30;;
74528;SDS011;63009;52.584;5.932;2022-12-20T16:48:45;20.52;;;13.30;;
74528;SDS011;63009;52.584;5.932;2022-12-20T16:51:22;20.52;;;12.13;;
74528;SDS011;63009;52.584;5.932;2022-12-20T16:53:48;21.77;;;12.68;;